Time;durP1;ratioP1;P1;durP2;ratioP2;P2;SDS_P1;SDS_P2;PMS_P1;PMS_P2;Temp;Humidity;BMP_temperature;BMP_pressure;BME280_temperature;BME280_humidity;BME280_pressure;Samples;Min_cycle;Max_cycle;Signal;HPM_P1;HPM_P2
2023/02/26 00:01:15;;;;;;;70.17;3.40;;;0.60;99.90;;;;;;4999177;28;20446;-76
2023/02/26 00:03:41;;;;;;;76.20;4.00;;;0.70;99.90;;;;;;4993470;28;20778;-74
2023/02/26 00:06:08;;;;;;;68.97;3.27;;;0.70;99.90;;;;;;5003741;28;20483;-75
2023/02/26 00:08:34;;;;;;;72.20;3.77;;;0.70;99.90;;;;;;5000395;28;20522;-74
2023/02/26 00:11:00;;;;;;;71.50;3.67;;;0.70;99.90;;;;;;4999592;28;20510;-74
2023/02/26 00:13:27;;;;;;;68.90;3.50;;;0.70;99.90;;;;;;5000095;28;20441;-74
2023/02/26 00:15:57;;;;;;;68.80;3.23;;;0.70;99.90;;;;;;5003591;28;20430;-75
2023/02/26 00:18:23;;;;;;;69.97;3.50;;;0.70;99.90;;;;;;5002854;28;20416;-75
2023/02/26 00:20:49;;;;;;;70.97;3.37;;;0.70;99.90;;;;;;4991747;28;20448;-76
2023/02/26 00:23:16;;;;;;;73.67;3.53;;;0.60;99.90;;;;;;4998783;28;20489;-74
2023/02/26 00:25:42;;;;;;;71.67;3.60;;;0.60;99.90;;;;;;5000638;28;20406;-75
2023/02/26 00:28:08;;;;;;;70.53;3.60;;;0.60;99.90;;;;;;5000092;28;20429;-75
2023/02/26 00:30:34;;;;;;;68.30;3.63;;;0.60;99.90;;;;;;5000659;28;20195;-74
2023/02/26 00:33:00;;;;;;;71.90;3.80;;;0.50;99.90;;;;;;5003645;28;20494;-74
2023/02/26 00:35:26;;;;;;;70.27;4.07;;;0.50;99.90;;;;;;4995258;28;20411;-74
2023/02/26 00:37:55;;;;;;;72.17;3.87;;;0.50;99.90;;;;;;5000170;28;20412;-74
2023/02/26 00:40:38;;;;;;;72.40;3.60;;;0.40;99.90;;;;;;4990900;28;21044;-75
2023/02/26 00:43:06;;;;;;;98.23;47.80;;;0.40;99.90;;;;;;4994161;28;20403;-74
2023/02/26 00:45:34;;;;;;;69.10;3.57;;;0.40;99.90;;;;;;5000616;28;20471;-75
2023/02/26 00:48:27;;;;;;;68.60;2.97;;;0.30;99.90;;;;;;5003317;28;20813;-75
2023/02/26 00:51:12;;;;;;;67.87;3.60;;;0.30;99.90;;;;;;4992131;28;20468;-75
2023/02/26 00:53:45;;;;;;;73.07;3.17;;;0.30;99.90;;;;;;5001351;28;20402;-74
2023/02/26 00:56:10;;;;;;;71.70;3.00;;;0.30;99.90;;;;;;5003399;28;20437;-74
2023/02/26 00:58:36;;;;;;;73.17;3.50;;;0.20;99.90;;;;;;5001477;28;20766;-74
2023/02/26 01:01:01;;;;;;;66.87;3.07;;;0.20;99.90;;;;;;4999825;28;20212;-76
2023/02/26 01:03:27;;;;;;;74.13;4.03;;;0.20;99.90;;;;;;5007826;28;20192;-75
2023/02/26 01:05:53;;;;;;;69.70;3.70;;;0.10;99.90;;;;;;4999846;28;20185;-74
2023/02/26 01:08:26;;;;;;;70.13;3.40;;;0.00;99.90;;;;;;4999009;28;20403;-74
2023/02/26 01:10:52;;;;;;;67.80;3.53;;;0.00;99.90;;;;;;4999516;28;20444;-75
2023/02/26 01:13:18;;;;;;;66.67;2.90;;;0.00;99.90;;;;;;4998680;28;20435;-74
2023/02/26 01:15:49;;;;;;;70.40;3.60;;;-0.10;99.90;;;;;;4994690;28;20197;-74
2023/02/26 01:18:32;;;;;;;70.47;3.67;;;-0.10;99.90;;;;;;5004705;28;20678;-75
2023/02/26 01:21:03;;;;;;;67.40;3.10;;;-0.10;99.90;;;;;;4989158;28;20484;-74
2023/02/26 01:23:34;;;;;;;68.30;3.23;;;-0.20;99.90;;;;;;5009285;28;20432;-75
2023/02/26 01:26:11;;;;;;;68.70;3.80;;;-0.20;99.90;;;;;;5006245;28;20420;-77
2023/02/26 01:28:37;;;;;;;70.30;3.40;;;-0.30;99.90;;;;;;5006869;28;20436;-75
2023/02/26 01:31:06;;;;;;;67.53;3.33;;;-0.30;99.90;;;;;;5009263;28;20421;-75
2023/02/26 01:33:43;;;;;;;69.80;2.90;;;-0.30;99.90;;;;;;5008368;28;20278;-75
2023/02/26 01:36:18;;;;;;;65.60;2.87;;;-0.40;99.90;;;;;;5003540;28;20443;-74
2023/02/26 01:39:05;;;;;;;67.87;2.90;;;-0.40;99.90;;;;;;5005704;28;20442;-75
2023/02/26 01:41:46;;;;;;;68.47;3.13;;;-0.50;99.90;;;;;;5005539;28;20546;-76
2023/02/26 01:44:31;;;;;;;71.47;3.67;;;-0.50;99.90;;;;;;5010117;28;20398;-74
2023/02/26 01:47:09;;;;;;;71.87;3.40;;;-0.60;99.90;;;;;;4998647;28;20506;-74
2023/02/26 01:49:36;;;;;;;67.60;3.47;;;-0.60;99.90;;;;;;5005750;28;20997;-74
2023/02/26 01:52:06;;;;;;;70.90;3.90;;;-0.70;99.90;;;;;;5006035;28;20451;-75
2023/02/26 01:54:35;;;;;;;67.67;2.60;;;-0.70;99.90;;;;;;5006150;28;20421;-74
2023/02/26 01:57:09;;;;;;;73.30;3.30;;;-0.70;99.90;;;;;;5009250;28;20435;-74
2023/02/26 01:59:45;;;;;;;67.20;3.13;;;-0.80;99.90;;;;;;5007851;28;20474;-75
2023/02/26 03:33:01;;;;;;;65.87;3.20;;;-1.90;99.90;;;;;;5015308;22;20494;-74
2023/02/26 03:35:49;;;;;;;67.10;2.90;;;-1.90;99.90;;;;;;5018878;28;20455;-73
2023/02/26 03:38:29;;;;;;;68.70;2.97;;;-1.90;99.90;;;;;;5026872;28;20432;-72
2023/02/26 03:41:09;;;;;;;70.00;4.00;;;-1.90;99.90;;;;;;5011018;28;20524;-73
2023/02/26 03:44:31;;;;;;;70.70;3.50;;;-1.90;99.90;;;;;;4996953;28;20420;-72
2023/02/26 03:47:10;;;;;;;66.63;3.60;;;-1.90;99.90;;;;;;4935862;29;20455;-74
2023/02/26 03:49:51;;;;;;;67.40;2.73;;;-1.90;99.90;;;;;;4996722;28;20427;-76
2023/02/26 03:52:21;;;;;;;68.80;3.87;;;-2.00;99.90;;;;;;5006368;28;20436;-74
2023/02/26 03:55:14;;;;;;;66.53;3.50;;;-2.00;99.90;;;;;;4995204;28;20417;-74
2023/02/26 03:57:39;;;;;;;66.23;3.80;;;-2.00;99.90;;;;;;4995855;28;20871;-73
2023/02/26 04:00:09;;;;;;;68.37;3.27;;;-2.00;99.90;;;;;;5001348;28;20462;-74
2023/02/26 04:02:42;;;;;;;67.40;3.00;;;-2.10;99.90;;;;;;5000548;28;20230;-74
2023/02/26 04:05:14;;;;;;;71.20;3.73;;;-2.10;99.90;;;;;;5008264;28;20793;-74
2023/02/26 04:07:40;;;;;;;69.47;3.77;;;-2.10;99.90;;;;;;4993424;28;20401;-74
2023/02/26 04:10:07;;;;;;;67.37;3.23;;;-2.10;99.90;;;;;;5000357;28;20441;-74
2023/02/26 04:12:33;;;;;;;66.63;3.30;;;-2.20;99.90;;;;;;4992845;28;20454;-74
2023/02/26 04:14:58;;;;;;;66.77;3.40;;;-2.20;99.90;;;;;;4992815;28;20427;-74
2023/02/26 04:17:24;;;;;;;69.77;4.03;;;-2.20;99.90;;;;;;4998865;28;20236;-74
2023/02/26 04:19:49;;;;;;;68.53;3.20;;;-2.20;99.90;;;;;;4994265;28;20242;-73
2023/02/26 04:22:15;;;;;;;64.80;3.50;;;-2.20;99.90;;;;;;5005453;28;20202;-74
2023/02/26 04:24:40;;;;;;;70.17;3.50;;;-2.30;99.90;;;;;;4995748;28;20205;-74
2023/02/26 04:27:06;;;;;;;65.37;3.40;;;-2.30;99.90;;;;;;5008239;28;20184;-75
2023/02/26 04:29:32;;;;;;;70.20;3.77;;;-2.40;99.90;;;;;;4992552;28;20194;-74
2023/02/26 04:31:57;;;;;;;66.80;3.37;;;-2.40;99.90;;;;;;5003052;28;20598;-74
2023/02/26 04:34:23;;;;;;;67.30;3.27;;;-2.40;99.90;;;;;;4997658;28;20196;-74
2023/02/26 04:36:49;;;;;;;71.33;3.30;;;-2.50;99.90;;;;;;4992425;28;20253;-75
2023/02/26 04:39:14;;;;;;;67.10;3.03;;;-2.50;99.90;;;;;;4992281;28;20306;-74
2023/02/26 04:41:40;;;;;;;64.03;2.93;;;-2.50;99.90;;;;;;5000194;28;20291;-75
2023/02/26 04:44:05;;;;;;;65.07;3.50;;;-2.50;99.90;;;;;;4995956;28;20273;-74
2023/02/26 04:46:32;;;;;;;69.70;3.27;;;-2.40;99.90;;;;;;4996514;28;20194;-76
2023/02/26 04:48:57;;;;;;;71.30;3.67;;;-2.40;99.90;;;;;;5000190;28;20188;-76
2023/02/26 04:51:23;;;;;;;67.47;2.77;;;-2.30;99.90;;;;;;4990656;28;20461;-73
2023/02/26 04:53:49;;;;;;;71.37;3.37;;;-2.30;99.90;;;;;;4992214;28;20226;-73
2023/02/26 04:56:15;;;;;;;67.60;3.00;;;-2.20;99.90;;;;;;4991728;28;20195;-74
2023/02/26 04:58:40;;;;;;;68.23;3.10;;;-2.20;99.90;;;;;;4992086;28;20187;-75
2023/02/26 05:01:06;;;;;;;66.80;3.60;;;-2.10;99.90;;;;;;4998766;28;20957;-76
2023/02/26 05:03:31;;;;;;;70.13;3.40;;;-2.10;99.90;;;;;;4992150;28;20187;-73
2023/02/26 05:05:57;;;;;;;67.60;3.27;;;-2.00;99.90;;;;;;4999679;28;20258;-73
2023/02/26 05:08:23;;;;;;;67.57;3.63;;;-2.00;99.90;;;;;;4992278;28;20199;-73
2023/02/26 05:10:50;;;;;;;67.23;3.47;;;-2.00;99.90;;;;;;4992004;28;20583;-74
2023/02/26 05:13:16;;;;;;;69.67;3.07;;;-2.00;99.90;;;;;;4991054;28;20192;-73
2023/02/26 05:15:42;;;;;;;67.77;3.67;;;-2.10;99.90;;;;;;4991993;28;20421;-74
2023/02/26 05:18:07;;;;;;;66.40;3.10;;;-2.10;99.90;;;;;;4992237;28;20191;-74
2023/02/26 05:20:33;;;;;;;63.80;2.80;;;-2.10;99.90;;;;;;4999594;28;20224;-74
2023/02/26 05:22:58;;;;;;;64.90;2.97;;;-2.10;99.90;;;;;;4992983;28;20254;-73
2023/02/26 05:25:24;;;;;;;67.67;3.87;;;-2.20;99.90;;;;;;5000140;28;20621;-75
2023/02/26 05:27:49;;;;;;;66.40;3.37;;;-2.20;99.90;;;;;;4992009;28;20187;-75
2023/02/26 05:30:16;;;;;;;66.90;3.33;;;-2.30;99.90;;;;;;4992134;28;20750;-75
2023/02/26 05:32:42;;;;;;;65.97;4.27;;;-2.30;99.90;;;;;;5001228;28;20227;-76
2023/02/26 05:35:08;;;;;;;64.97;3.13;;;-2.30;99.90;;;;;;4992500;28;20439;-74
2023/02/26 05:37:34;;;;;;;68.40;3.47;;;-2.30;99.90;;;;;;4992504;28;20190;-74
2023/02/26 05:40:00;;;;;;;68.13;3.10;;;-2.30;99.90;;;;;;4991683;28;20474;-74
2023/02/26 05:42:25;;;;;;;68.60;3.50;;;-2.30;99.90;;;;;;4992209;28;20250;-74
2023/02/26 05:44:51;;;;;;;66.50;2.93;;;-2.40;99.90;;;;;;4992322;28;20782;-75
2023/02/26 05:47:16;;;;;;;66.50;3.20;;;-2.40;99.90;;;;;;4992249;28;20547;-75
2023/02/26 05:49:42;;;;;;;108.90;46.90;;;-2.40;99.90;;;;;;4991867;28;20273;-72
2023/02/26 05:52:07;;;;;;;77.87;5.13;;;-2.40;99.90;;;;;;4999954;28;20380;-72
2023/02/26 05:54:33;;;;;;;79.10;5.20;;;-2.50;99.90;;;;;;4998467;28;20268;-72
2023/02/26 05:56:59;;;;;;;79.27;5.07;;;-2.40;99.90;;;;;;4992735;28;20195;-72
2023/02/26 05:59:25;;;;;;;86.30;5.57;;;-2.40;99.90;;;;;;4999489;28;20290;-72
2023/02/26 06:01:50;;;;;;;82.53;5.27;;;-2.40;99.90;;;;;;4991600;28;20583;-72
2023/02/26 06:04:16;;;;;;;83.30;5.40;;;-2.30;99.90;;;;;;4991612;28;20438;-72
2023/02/26 06:06:41;;;;;;;83.30;5.20;;;-2.30;99.90;;;;;;4991494;28;20201;-74
2023/02/26 06:09:07;;;;;;;82.30;4.97;;;-2.30;99.90;;;;;;5001132;28;20380;-71
2023/02/26 06:11:33;;;;;;;81.30;5.10;;;-2.40;99.90;;;;;;4994968;28;20221;-73
2023/02/26 06:13:58;;;;;;;80.10;5.40;;;-2.40;99.90;;;;;;4994918;28;20470;-73
2023/02/26 06:16:24;;;;;;;93.73;5.10;;;-2.40;99.90;;;;;;4995083;28;20199;-73
2023/02/26 06:18:50;;;;;;;81.93;4.53;;;-2.40;99.90;;;;;;4994757;28;20213;-73
2023/02/26 06:21:16;;;;;;;80.30;4.63;;;-2.40;99.90;;;;;;4998793;28;20485;-73
2023/02/26 06:23:42;;;;;;;80.47;4.20;;;-2.30;99.90;;;;;;4998726;28;20197;-73
2023/02/26 06:26:07;;;;;;;78.40;5.10;;;-2.30;99.90;;;;;;4997335;28;20547;-73
2023/02/26 06:28:33;;;;;;;79.07;4.93;;;-2.30;99.90;;;;;;5007490;28;20270;-73
2023/02/26 06:30:59;;;;;;;78.40;4.97;;;-2.30;99.90;;;;;;5002071;28;20723;-73
2023/02/26 06:33:24;;;;;;;78.33;4.77;;;-2.30;99.90;;;;;;4994669;28;20203;-72
2023/02/26 06:35:50;;;;;;;77.40;4.67;;;-2.20;99.90;;;;;;5002437;28;20201;-73
2023/02/26 06:38:15;;;;;;;80.77;4.87;;;-2.20;99.90;;;;;;4998421;28;20202;-73
2023/02/26 06:40:41;;;;;;;76.90;4.53;;;-2.20;99.90;;;;;;4998170;28;20698;-72
2023/02/26 06:43:07;;;;;;;76.17;4.40;;;-2.10;99.90;;;;;;4993995;28;20208;-72
2023/02/26 06:45:33;;;;;;;79.17;5.27;;;-2.00;99.90;;;;;;4994305;28;20199;-73
2023/02/26 06:47:58;;;;;;;78.60;5.17;;;-2.00;99.90;;;;;;4994190;28;20194;-72
2023/02/26 06:50:24;;;;;;;80.67;4.50;;;-1.90;99.90;;;;;;4994089;28;20204;-73
2023/02/26 06:52:50;;;;;;;79.90;5.57;;;-1.80;99.90;;;;;;5002432;28;20831;-73
2023/02/26 06:55:15;;;;;;;84.40;6.93;;;-1.70;99.90;;;;;;4994024;28;20255;-73
2023/02/26 06:57:41;;;;;;;76.70;5.03;;;-1.50;99.90;;;;;;4994244;28;20206;-73
2023/02/26 07:00:08;;;;;;;77.20;4.83;;;-1.50;99.90;;;;;;4993684;28;20219;-74
2023/02/26 07:02:33;;;;;;;80.77;4.60;;;-1.30;99.90;;;;;;4993204;28;20215;-72
2023/02/26 07:04:59;;;;;;;81.37;4.70;;;-1.20;99.90;;;;;;5002029;28;20438;-73
2023/02/26 07:07:24;;;;;;;83.07;4.20;;;-1.10;99.90;;;;;;4993975;28;20653;-74
2023/02/26 07:09:50;;;;;;;80.43;4.60;;;-1.10;99.90;;;;;;5001472;28;20278;-73
2023/02/26 07:12:15;;;;;;;79.43;4.97;;;-1.00;99.90;;;;;;4997319;28;20254;-73
2023/02/26 07:14:44;;;;;;;75.67;4.80;;;-0.80;99.90;;;;;;4998099;28;20192;-73
2023/02/26 07:17:19;;;;;;;76.97;4.83;;;-0.80;99.90;;;;;;5001557;28;20189;-73
2023/02/26 07:19:45;;;;;;;81.23;4.53;;;-0.70;99.90;;;;;;4991982;28;20886;-73
2023/02/26 07:22:10;;;;;;;79.67;5.70;;;-0.70;99.90;;;;;;4993680;28;20476;-73
2023/02/26 07:24:36;;;;;;;83.30;5.50;;;-0.60;99.90;;;;;;4994261;28;20425;-74
2023/02/26 07:27:01;;;;;;;83.50;5.13;;;-0.50;99.90;;;;;;4993296;28;20707;-71
2023/02/26 07:29:27;;;;;;;78.30;4.77;;;-0.40;99.90;;;;;;4993391;28;20194;-73
2023/02/26 07:31:52;;;;;;;84.17;5.93;;;-0.10;99.90;;;;;;4994849;28;20224;-74
2023/02/26 07:34:18;;;;;;;83.17;5.10;;;0.30;99.90;;;;;;4992525;28;20204;-73
2023/02/26 07:36:44;;;;;;;78.00;4.80;;;0.90;99.90;;;;;;5000172;28;20191;-72
2023/02/26 07:39:10;;;;;;;77.60;5.20;;;1.90;99.90;;;;;;4993035;28;20199;-72
2023/02/26 07:41:35;;;;;;;76.60;4.00;;;3.00;99.90;;;;;;4992904;28;20216;-73
2023/02/26 07:44:01;;;;;;;77.30;4.97;;;3.20;99.90;;;;;;4993305;28;20430;-73
2023/02/26 07:46:26;;;;;;;78.20;5.00;;;4.50;99.90;;;;;;4998430;28;20184;-73
2023/02/26 07:48:52;;;;;;;77.27;4.97;;;5.10;99.90;;;;;;4996267;28;20265;-73
2023/02/26 07:51:17;;;;;;;79.13;4.73;;;5.60;99.90;;;;;;5000770;28;20310;-74
2023/02/26 07:53:43;;;;;;;78.93;5.00;;;5.50;99.90;;;;;;4993223;28;20197;-71
2023/02/26 07:56:09;;;;;;;76.93;4.90;;;4.70;99.90;;;;;;4995364;28;20200;-72
2023/02/26 07:58:34;;;;;;;83.67;5.60;;;3.50;99.90;;;;;;4997293;28;20268;-73
2023/02/26 08:01:00;;;;;;;76.17;4.53;;;2.70;99.90;;;;;;4992628;28;20225;-73
2023/02/26 08:03:25;;;;;;;75.63;4.93;;;2.20;99.90;;;;;;4993000;28;20689;-73
2023/02/26 08:05:50;;;;;;;74.37;4.33;;;1.90;99.90;;;;;;4992988;28;20197;-72
2023/02/26 08:08:16;;;;;;;77.70;4.77;;;2.10;99.90;;;;;;4992699;28;20194;-74
2023/02/26 08:10:41;;;;;;;77.40;4.17;;;2.30;99.90;;;;;;4992566;28;20212;-72
2023/02/26 08:13:07;;;;;;;77.50;4.67;;;2.40;99.90;;;;;;4994154;28;20240;-71
2023/02/26 08:15:33;;;;;;;80.27;4.77;;;2.50;99.90;;;;;;4997031;28;20294;-72
2023/02/26 08:17:58;;;;;;;74.90;4.47;;;2.40;99.90;;;;;;4991365;28;20254;-74
2023/02/26 08:20:24;;;;;;;79.47;4.10;;;2.40;99.90;;;;;;4999270;28;20215;-73
2023/02/26 08:22:50;;;;;;;73.00;3.50;;;2.20;99.90;;;;;;4991368;28;20273;-74
2023/02/26 08:25:15;;;;;;;73.00;4.00;;;2.00;99.90;;;;;;4991307;28;20219;-73
2023/02/26 08:27:41;;;;;;;72.80;3.50;;;1.80;99.90;;;;;;4991680;28;20498;-72
2023/02/26 08:30:08;;;;;;;77.13;4.37;;;1.80;99.90;;;;;;4993938;28;20588;-71
2023/02/26 08:32:34;;;;;;;78.30;3.90;;;1.90;99.90;;;;;;4990618;28;20234;-71
2023/02/26 08:35:00;;;;;;;81.40;3.93;;;1.90;99.90;;;;;;4994915;28;20447;-73
2023/02/26 08:37:25;;;;;;;75.33;3.43;;;1.80;99.90;;;;;;4991263;28;20466;-73
2023/02/26 08:39:52;;;;;;;71.70;3.20;;;1.60;99.90;;;;;;4991013;28;20221;-81
2023/02/26 08:42:19;;;;;;;73.40;3.77;;;1.50;99.90;;;;;;4998885;28;20222;-74
2023/02/26 08:44:45;;;;;;;73.20;3.27;;;1.70;99.90;;;;;;4991045;28;20417;-73
2023/02/26 08:47:11;;;;;;;73.57;3.70;;;2.10;99.90;;;;;;4990867;28;20886;-73
2023/02/26 08:49:36;;;;;;;75.53;4.93;;;2.70;99.90;;;;;;4991124;28;20465;-73
2023/02/26 08:52:02;;;;;;;74.20;3.50;;;3.30;99.90;;;;;;4990570;28;20778;-73
2023/02/26 08:54:27;;;;;;;70.77;3.20;;;3.40;99.90;;;;;;4991022;28;20213;-73
2023/02/26 08:56:54;;;;;;;70.77;3.07;;;3.40;99.90;;;;;;4991027;28;20228;-73
2023/02/26 08:59:20;;;;;;;80.40;4.33;;;2.90;99.90;;;;;;4990927;28;20651;-74
2023/02/26 09:01:46;;;;;;;72.07;3.23;;;2.50;99.90;;;;;;5005847;28;20537;-73
2023/02/26 09:04:11;;;;;;;76.77;3.40;;;2.10;99.90;;;;;;4995885;28;20225;-73
2023/02/26 09:06:37;;;;;;;70.13;3.50;;;1.50;99.90;;;;;;4991083;28;20214;-72
2023/02/26 09:09:03;;;;;;;70.53;3.03;;;1.30;99.90;;;;;;4990785;28;20210;-73
2023/02/26 09:11:29;;;;;;;67.70;2.60;;;1.20;99.90;;;;;;4991449;28;20213;-74
2023/02/26 09:13:55;;;;;;;57.90;2.10;;;1.10;99.90;;;;;;4990970;28;20465;-72
2023/02/26 09:16:21;;;;;;;55.80;2.07;;;1.20;99.90;;;;;;4998966;28;20431;-74
2023/02/26 09:18:46;;;;;;;75.23;4.57;;;1.20;99.90;;;;;;4998905;28;20475;-72
2023/02/26 09:21:12;;;;;;;72.27;3.17;;;1.30;99.90;;;;;;4990806;28;20282;-72
2023/02/26 09:23:37;;;;;;;66.80;2.77;;;1.20;99.90;;;;;;4989695;28;20279;-72
2023/02/26 09:26:03;;;;;;;70.73;2.90;;;1.40;99.90;;;;;;4997503;28;20213;-74
2023/02/26 09:28:28;;;;;;;65.20;2.73;;;1.20;99.90;;;;;;4990935;28;20247;-73
2023/02/26 09:30:54;;;;;;;62.50;2.53;;;1.20;99.90;;;;;;4998417;28;20683;-72
2023/02/26 09:33:21;;;;;;;64.77;2.80;;;1.10;99.90;;;;;;4998627;28;20236;-73
2023/02/26 09:35:48;;;;;;;62.10;2.60;;;1.20;99.90;;;;;;4995126;28;20484;-74
2023/02/26 09:38:14;;;;;;;61.37;2.40;;;1.10;99.90;;;;;;4990509;28;20476;-76
2023/02/26 09:40:57;;;;;;;61.67;2.50;;;1.00;99.90;;;;;;4995413;28;20475;-74
2023/02/26 09:43:31;;;;;;;62.70;2.07;;;0.90;99.90;;;;;;4993289;28;20542;-73
2023/02/26 09:46:02;;;;;;;59.37;2.10;;;0.80;99.90;;;;;;5003464;28;20892;-71
2023/02/26 09:48:31;;;;;;;58.20;2.30;;;0.80;99.90;;;;;;4994381;28;20461;-73
2023/02/26 09:50:58;;;;;;;63.27;2.40;;;0.70;99.90;;;;;;4994144;28;20430;-74
2023/02/26 09:53:30;;;;;;;61.30;2.50;;;0.60;99.90;;;;;;5000664;28;20533;-74
2023/02/26 09:56:03;;;;;;;57.80;2.27;;;0.70;99.90;;;;;;4994573;28;21043;-74
2023/02/26 09:58:32;;;;;;;58.60;2.20;;;0.70;99.90;;;;;;4994313;28;20464;-76
2023/02/26 10:01:21;;;;;;;58.40;2.33;;;0.70;99.90;;;;;;4992732;28;20485;-74
2023/02/26 10:04:11;;;;;;;59.57;2.20;;;0.70;99.90;;;;;;4997247;28;20900;-73
2023/02/26 10:07:15;;;;;;;57.60;2.30;;;0.50;99.90;;;;;;4994256;28;20461;-73
2023/02/26 10:10:15;;;;;;;57.50;2.77;;;0.50;99.90;;;;;;4994053;28;20463;-72
2023/02/26 10:12:43;;;;;;;56.13;2.47;;;0.50;99.90;;;;;;4983848;28;20456;-74
2023/02/26 10:15:12;;;;;;;61.00;2.40;;;0.50;99.90;;;;;;5000388;28;20991;-71
2023/02/26 10:17:56;;;;;;;58.40;2.57;;;0.50;99.90;;;;;;4994084;28;20431;-73
2023/02/26 10:20:43;;;;;;;57.60;2.30;;;0.50;99.90;;;;;;4993909;28;20516;-71
2023/02/26 10:23:17;;;;;;;57.47;2.20;;;0.50;99.90;;;;;;4993456;28;20970;-72
2023/02/26 10:25:48;;;;;;;58.20;2.17;;;0.40;99.90;;;;;;5008527;28;20436;-72
2023/02/26 10:28:13;;;;;;;59.20;2.47;;;0.50;99.90;;;;;;5011896;28;20454;-73
2023/02/26 10:30:44;;;;;;;63.67;5.47;;;0.70;99.90;;;;;;5020930;28;20465;-74
2023/02/26 10:33:38;;;;;;;58.90;2.00;;;0.70;99.90;;;;;;5012479;28;20588;-71
2023/02/26 10:36:25;;;;;;;57.37;2.50;;;0.80;99.90;;;;;;5009263;28;20444;-72
2023/02/26 10:39:14;;;;;;;58.20;2.40;;;0.90;99.90;;;;;;4995984;28;20490;-73
2023/02/26 10:41:40;;;;;;;58.50;2.40;;;1.00;99.90;;;;;;5006786;28;20997;-73
2023/02/26 10:44:16;;;;;;;59.43;1.83;;;1.20;99.90;;;;;;5004210;28;20555;-72
2023/02/26 10:46:55;;;;;;;59.63;2.40;;;1.30;99.90;;;;;;5007715;28;20466;-73
2023/02/26 10:50:01;;;;;;;63.83;2.67;;;1.30;99.90;;;;;;5011514;28;21270;-71
2023/02/26 10:52:30;;;;;;;62.00;2.40;;;1.40;99.90;;;;;;4999928;28;20418;-71
2023/02/26 10:55:14;;;;;;;63.30;2.20;;;1.40;99.90;;;;;;5011409;28;20490;-72
2023/02/26 10:57:47;;;;;;;59.00;2.03;;;1.40;99.90;;;;;;5006091;28;20445;-71
2023/02/26 11:00:18;;;;;;;62.57;2.50;;;1.40;99.90;;;;;;5011208;28;20459;-73
2023/02/26 11:02:46;;;;;;;61.60;2.40;;;1.40;99.90;;;;;;5007637;28;20459;-72
2023/02/26 11:05:22;;;;;;;60.70;2.20;;;1.40;99.90;;;;;;5009910;28;20510;-73
2023/02/26 11:07:53;;;;;;;63.50;2.67;;;1.40;99.90;;;;;;5011850;28;20531;-73
2023/02/26 11:10:23;;;;;;;61.53;2.37;;;1.30;99.90;;;;;;5010809;28;20464;-73
2023/02/26 11:12:48;;;;;;;60.90;2.37;;;1.30;99.90;;;;;;5011714;28;20510;-72
2023/02/26 11:15:17;;;;;;;61.27;2.23;;;1.30;99.90;;;;;;5010903;28;20564;-71
2023/02/26 11:17:46;;;;;;;60.53;2.30;;;1.40;99.90;;;;;;5011714;28;20213;-72
2023/02/26 11:20:37;;;;;;;58.97;2.23;;;1.40;99.90;;;;;;5008531;28;20498;-72
2023/02/26 11:23:06;;;;;;;59.17;2.03;;;1.50;99.90;;;;;;5010690;28;20465;-71
2023/02/26 11:25:33;;;;;;;59.57;2.50;;;1.60;99.90;;;;;;5008138;28;20811;-72
2023/02/26 11:28:07;;;;;;;59.80;2.63;;;1.80;99.90;;;;;;5011246;28;20424;-73
2023/02/26 11:30:36;;;;;;;58.77;2.43;;;2.10;99.90;;;;;;5011316;28;20462;-73
2023/02/26 11:33:17;;;;;;;58.80;1.87;;;2.50;99.90;;;;;;5011413;28;20429;-74
2023/02/26 11:35:44;;;;;;;63.73;2.10;;;2.80;99.90;;;;;;5010428;28;20500;-73
2023/02/26 11:38:17;;;;;;;63.40;2.50;;;2.90;99.90;;;;;;5002764;28;20553;-73
2023/02/26 11:40:46;;;;;;;125.57;25.60;;;2.90;99.90;;;;;;5008402;28;20513;-73
2023/02/26 11:43:19;;;;;;;66.97;2.30;;;2.60;99.90;;;;;;5005865;28;20454;-73
2023/02/26 11:45:47;;;;;;;64.60;2.50;;;2.50;99.90;;;;;;5005100;28;20474;-73
2023/02/26 11:48:19;;;;;;;63.93;2.67;;;2.40;99.90;;;;;;5005585;28;20465;-73
2023/02/26 11:50:48;;;;;;;62.67;2.20;;;2.50;99.90;;;;;;4998726;28;20484;-74
2023/02/26 11:53:20;;;;;;;62.57;2.30;;;2.60;99.90;;;;;;5005953;28;20501;-73
2023/02/26 11:55:51;;;;;;;61.90;2.20;;;2.60;99.90;;;;;;4998039;28;20541;-74
2023/02/26 11:58:20;;;;;;;60.30;1.97;;;2.60;99.90;;;;;;5010322;28;20479;-73
2023/02/26 12:00:48;;;;;;;64.37;2.27;;;2.40;99.90;;;;;;5010814;28;20524;-73
2023/02/26 12:03:20;;;;;;;62.13;2.17;;;2.40;99.90;;;;;;5006573;28;20461;-73
2023/02/26 12:05:47;;;;;;;66.27;2.37;;;2.30;99.90;;;;;;5004651;28;20597;-73
2023/02/26 12:08:24;;;;;;;65.80;2.27;;;2.10;99.90;;;;;;5010538;28;20876;-73
2023/02/26 12:11:38;;;;;;;69.50;2.47;;;2.20;99.90;;;;;;4996899;28;20822;-74
2023/02/26 12:14:36;;;;;;;65.67;2.30;;;2.00;99.90;;;;;;4994596;28;20429;-72
2023/02/26 12:17:11;;;;;;;64.37;2.40;;;2.00;99.90;;;;;;4991572;28;20864;-74
2023/02/26 12:20:13;;;;;;;65.80;2.40;;;1.90;99.90;;;;;;4991934;28;20522;-72
2023/02/26 12:23:00;;;;;;;63.97;2.00;;;1.80;99.90;;;;;;5000354;28;21005;-73
2023/02/26 12:25:42;;;;;;;63.97;2.03;;;1.90;99.90;;;;;;4994838;28;20457;-73
2023/02/26 12:28:46;;;;;;;63.77;1.93;;;2.00;99.90;;;;;;4998602;28;20470;-73
2023/02/26 12:32:06;;;;;;;64.93;2.47;;;2.00;99.90;;;;;;4990667;28;20477;-75
2023/02/26 12:35:05;;;;;;;67.90;2.73;;;2.00;99.90;;;;;;4938549;29;20495;-72
2023/02/26 12:38:03;;;;;;;62.87;2.00;;;2.00;99.90;;;;;;4940257;29;20473;-74
2023/02/26 12:41:07;;;;;;;61.60;1.60;;;1.90;99.90;;;;;;4999083;28;20813;-73
2023/02/26 12:43:41;;;;;;;62.93;1.77;;;1.90;99.90;;;;;;4989399;28;20568;-73
2023/02/26 12:46:06;;;;;;;63.27;2.37;;;2.00;99.90;;;;;;4990963;28;20427;-70
2023/02/26 12:48:50;;;;;;;63.27;2.30;;;1.90;99.90;;;;;;4998046;28;20929;-74
2023/02/26 12:52:03;;;;;;;63.87;2.20;;;1.80;99.90;;;;;;5000996;28;20248;-75
2023/02/26 12:54:43;;;;;;;66.00;2.30;;;2.00;99.90;;;;;;4929158;28;20536;-74
2023/02/26 12:57:33;;;;;;;62.57;2.40;;;2.20;99.90;;;;;;4991041;28;20843;-74
2023/02/26 13:00:14;;;;;;;63.37;2.77;;;2.50;99.90;;;;;;4991254;28;20481;-74
2023/02/26 13:02:49;;;;;;;63.80;2.10;;;2.70;99.90;;;;;;4995142;28;20467;-74
2023/02/26 13:05:20;;;;;;;61.80;2.40;;;2.80;99.90;;;;;;4999167;28;20448;-73
2023/02/26 13:08:13;;;;;;;63.33;2.37;;;2.90;99.90;;;;;;4996350;28;20535;-73
2023/02/26 13:10:48;;;;;;;63.87;2.67;;;2.60;99.90;;;;;;4991019;28;20451;-74
2023/02/26 13:13:25;;;;;;;63.60;2.30;;;2.60;99.90;;;;;;4998628;28;20501;-73
2023/02/26 13:16:06;;;;;;;63.60;2.50;;;2.70;99.90;;;;;;4990755;28;20446;-74
2023/02/26 13:18:55;;;;;;;63.20;2.40;;;2.80;99.90;;;;;;5008756;28;20482;-74
2023/02/26 13:21:21;;;;;;;66.37;2.77;;;2.80;99.90;;;;;;4991761;28;20457;-74
2023/02/26 13:24:06;;;;;;;64.10;2.10;;;2.60;99.90;;;;;;4998244;28;20791;-74
2023/02/26 13:26:33;;;;;;;65.57;2.60;;;2.60;99.90;;;;;;4990731;28;20207;-74
2023/02/26 13:29:09;;;;;;;64.97;2.30;;;2.50;99.90;;;;;;4998036;28;21011;-76
2023/02/26 13:32:12;;;;;;;63.30;2.07;;;2.50;99.90;;;;;;4997754;28;20454;-73
2023/02/26 13:34:58;;;;;;;63.50;2.27;;;2.60;99.90;;;;;;5003468;28;20454;-74
2023/02/26 13:37:31;;;;;;;62.80;2.10;;;2.80;99.90;;;;;;4993108;28;20513;-73
2023/02/26 13:40:05;;;;;;;62.60;1.90;;;2.90;99.90;;;;;;4995526;28;20569;-73
2023/02/26 13:42:43;;;;;;;62.60;2.43;;;2.80;99.90;;;;;;4992698;28;20440;-71
2023/02/26 13:45:44;;;;;;;63.80;2.10;;;2.80;99.90;;;;;;4994455;28;20509;-73
2023/02/26 13:48:20;;;;;;;67.00;4.10;;;2.70;99.90;;;;;;4998400;28;20481;-72
2023/02/26 13:50:56;;;;;;;67.53;2.10;;;2.80;99.90;;;;;;4989052;28;20528;-72
2023/02/26 13:53:46;;;;;;;63.60;2.10;;;2.80;99.90;;;;;;4999022;28;20849;-73
2023/02/26 13:56:16;;;;;;;61.57;1.80;;;2.80;99.90;;;;;;4993529;28;20883;-72
2023/02/26 13:58:47;;;;;;;62.10;2.00;;;2.90;99.90;;;;;;4997896;28;20471;-73
2023/02/26 14:01:14;;;;;;;61.90;2.10;;;2.90;99.90;;;;;;4990267;28;20470;-72
2023/02/26 14:04:05;;;;;;;62.20;1.90;;;3.00;99.90;;;;;;4999826;28;20800;-72
2023/02/26 14:06:47;;;;;;;64.07;2.43;;;2.90;99.90;;;;;;4990947;28;20448;-73
2023/02/26 14:09:21;;;;;;;63.37;2.00;;;2.90;99.90;;;;;;4997736;28;20524;-73
2023/02/26 14:11:59;;;;;;;63.00;1.80;;;2.80;99.90;;;;;;4990548;28;20860;-72
2023/02/26 14:14:32;;;;;;;64.90;2.00;;;2.70;99.90;;;;;;4997998;28;20478;-72
2023/02/26 14:17:07;;;;;;;65.33;2.07;;;2.60;99.90;;;;;;4990583;28;20484;-72
2023/02/26 14:20:15;;;;;;;65.27;2.23;;;2.70;99.90;;;;;;4997310;28;20479;-72
2023/02/26 14:22:42;;;;;;;64.10;2.50;;;2.70;99.90;;;;;;4993884;28;20549;-72
2023/02/26 14:25:07;;;;;;;64.20;2.00;;;2.80;99.90;;;;;;4993686;28;20856;-72
2023/02/26 14:27:45;;;;;;;64.83;2.10;;;2.70;99.90;;;;;;4992387;28;20454;-73
2023/02/26 14:30:11;;;;;;;64.43;3.50;;;2.80;99.90;;;;;;5026141;28;20225;-73
2023/02/26 14:33:07;;;;;;;63.97;3.43;;;2.80;99.90;;;;;;4996262;28;20438;-72
2023/02/26 14:35:45;;;;;;;63.77;2.10;;;2.80;99.90;;;;;;5000307;28;20231;-72
2023/02/26 14:38:31;;;;;;;64.37;1.77;;;2.70;99.90;;;;;;5001520;28;20889;-71